createdAt,value
2023-05-21T00:02:04.226Z,17.60
2023-05-21T00:05:14.385Z,17.40
2023-05-21T00:08:17.348Z,17.85
2023-05-21T00:11:20.197Z,15.82
2023-05-21T00:14:22.678Z,15.55
2023-05-21T00:17:26.360Z,16.65
2023-05-21T00:20:29.389Z,17.97
2023-05-21T00:23:32.925Z,15.30
2023-05-21T00:26:35.384Z,18.12
2023-05-21T00:29:38.464Z,16.15
2023-05-21T00:32:41.272Z,16.23
2023-05-21T00:35:44.479Z,15.07
2023-05-21T00:38:47.020Z,16.52
2023-05-21T00:41:50.176Z,16.75
2023-05-21T00:44:54.169Z,15.00
2023-05-21T00:47:57.127Z,16.45
2023-05-21T00:50:59.809Z,15.10
2023-05-21T00:54:02.921Z,17.67
2023-05-21T00:57:05.973Z,16.98
2023-05-21T01:00:10.869Z,12.98
2023-05-21T01:03:13.969Z,15.02
2023-05-21T01:06:16.932Z,16.63
2023-05-21T01:09:20.005Z,15.70
2023-05-21T01:12:23.580Z,16.90
2023-05-21T01:15:26.168Z,14.80
2023-05-21T01:18:29.886Z,15.40
2023-05-21T01:21:36.098Z,12.90
2023-05-21T01:24:39.017Z,16.10
2023-05-21T01:27:41.640Z,15.95
2023-05-21T01:30:45.549Z,13.98
2023-05-21T01:33:50.575Z,15.77
2023-05-21T01:37:01.057Z,15.27
2023-05-21T01:40:40.788Z,14.43
2023-05-21T01:43:45.729Z,15.43
2023-05-21T01:46:49.574Z,14.32
2023-05-21T01:49:52.592Z,13.93
2023-05-21T01:53:01.221Z,16.27
2023-05-21T01:56:04.896Z,16.23
2023-05-21T01:59:07.435Z,13.38
2023-05-21T02:02:10.401Z,17.17
2023-05-21T02:05:13.617Z,17.80
2023-05-21T02:08:16.296Z,14.33
2023-05-21T02:11:19.076Z,17.42
2023-05-21T02:14:21.944Z,15.65
2023-05-21T02:17:24.768Z,16.87
2023-05-21T02:20:28.063Z,19.10
2023-05-21T02:23:30.876Z,17.13
2023-05-21T02:26:33.413Z,17.33
2023-05-21T02:29:36.815Z,15.27
2023-05-21T02:32:43.141Z,16.67
2023-05-21T02:35:46.125Z,21.50
2023-05-21T02:38:49.165Z,17.47
2023-05-21T02:41:51.970Z,16.08
2023-05-21T02:44:54.633Z,15.20
2023-05-21T02:47:58.016Z,16.80
2023-05-21T02:51:00.615Z,17.98
2023-05-21T02:54:04.054Z,18.90
2023-05-21T02:57:06.810Z,17.37
2023-05-21T03:00:10.667Z,17.85
2023-05-21T03:03:14.080Z,19.27
2023-05-21T03:06:17.599Z,16.77
2023-05-21T03:09:21.705Z,17.37
2023-05-21T03:12:24.545Z,17.12
2023-05-21T03:15:27.084Z,16.58
2023-05-21T03:18:29.814Z,20.10
2023-05-21T03:21:32.415Z,18.87
2023-05-21T03:24:35.351Z,21.00
2023-05-21T03:27:39.590Z,17.85
2023-05-21T03:30:46.886Z,17.90
2023-05-21T03:33:50.302Z,19.02
2023-05-21T03:36:53.415Z,17.90
2023-05-21T03:39:57.062Z,18.17
2023-05-21T03:42:59.895Z,18.20
2023-05-21T03:46:03.026Z,18.52
2023-05-21T03:49:08.673Z,16.02
2023-05-21T03:52:11.654Z,15.63
2023-05-21T03:55:14.483Z,18.00
2023-05-21T03:58:17.271Z,15.52
2023-05-21T04:01:20.420Z,19.50
2023-05-21T04:04:23.580Z,16.42
2023-05-21T04:07:27.143Z,17.40
2023-05-21T04:10:30.488Z,16.50
2023-05-21T04:13:33.105Z,16.40
2023-05-21T04:16:38.726Z,18.65
2023-05-21T04:19:42.133Z,18.52
2023-05-21T04:22:45.187Z,16.83
2023-05-21T04:25:50.896Z,17.53
2023-05-21T04:28:55.538Z,16.60
2023-05-21T04:31:58.115Z,17.17
2023-05-21T04:35:01.240Z,15.45
2023-05-21T04:38:05.846Z,16.00
2023-05-21T04:41:12.232Z,14.07
2023-05-21T04:44:15.376Z,15.63
2023-05-21T04:47:18.656Z,14.30
2023-05-21T04:50:21.267Z,15.20
2023-05-21T04:53:26.200Z,14.45
2023-05-21T04:56:29.588Z,12.73
2023-05-21T04:59:32.496Z,13.48
2023-05-21T05:02:35.600Z,9.90
2023-05-21T05:05:38.672Z,11.48
2023-05-21T05:08:42.141Z,10.52
2023-05-21T05:11:45.162Z,10.93
2023-05-21T05:14:47.708Z,11.85
2023-05-21T05:17:50.596Z,12.77
2023-05-21T05:20:53.168Z,12.05
2023-05-21T05:23:56.199Z,10.02
2023-05-21T05:26:59.112Z,10.93
2023-05-21T05:30:01.929Z,16.67
2023-05-21T05:33:04.721Z,10.95
2023-05-21T05:36:07.837Z,10.52
2023-05-21T05:39:10.860Z,10.70
2023-05-21T05:42:13.967Z,11.20
2023-05-21T05:45:16.475Z,9.02
2023-05-21T05:48:19.402Z,9.55
2023-05-21T05:51:22.026Z,10.55
2023-05-21T05:54:24.870Z,10.27
2023-05-21T05:57:27.339Z,8.23
2023-05-21T06:00:30.918Z,8.40
2023-05-21T06:03:34.447Z,10.18
2023-05-21T06:06:42.136Z,11.70
2023-05-21T06:09:44.922Z,11.07
2023-05-21T06:12:47.610Z,9.97
2023-05-21T06:15:51.579Z,9.70
2023-05-21T06:18:54.752Z,9.30
2023-05-21T06:21:57.676Z,8.48
2023-05-21T06:25:01.243Z,11.05
2023-05-21T06:28:04.230Z,10.57
2023-05-21T06:31:07.083Z,9.25
2023-05-21T06:34:11.785Z,10.90
2023-05-21T06:37:14.323Z,10.23
2023-05-21T06:40:17.324Z,11.27
2023-05-21T06:43:21.267Z,11.40
2023-05-21T06:46:27.213Z,9.25
2023-05-21T06:49:29.844Z,8.43
2023-05-21T06:52:32.841Z,10.15
2023-05-21T06:55:36.518Z,9.88
2023-05-21T06:58:40.936Z,9.93
2023-05-21T07:01:44.201Z,8.93
2023-05-21T07:04:47.244Z,9.50
2023-05-21T07:07:49.788Z,9.43
2023-05-21T07:10:52.643Z,12.10
2023-05-21T07:13:58.110Z,8.63
2023-05-21T07:17:01.067Z,8.80
2023-05-21T07:20:06.878Z,8.75
2023-05-21T07:23:10.400Z,6.93
2023-05-21T07:26:13.036Z,8.55
2023-05-21T07:29:16.036Z,7.53
2023-05-21T07:32:18.690Z,8.35
2023-05-21T07:35:21.732Z,8.57
2023-05-21T07:38:24.501Z,7.00
2023-05-21T07:41:27.339Z,7.40
2023-05-21T07:44:30.645Z,8.37
2023-05-21T07:47:33.869Z,6.32
2023-05-21T07:50:37.782Z,8.82
2023-05-21T07:53:41.083Z,7.00
2023-05-21T07:56:44.626Z,6.65
2023-05-21T07:59:48.396Z,7.70
2023-05-21T08:02:52.512Z,8.07
2023-05-21T08:05:56.633Z,7.30
2023-05-21T08:09:00.011Z,6.57
2023-05-21T08:12:04.000Z,6.10
2023-05-21T08:15:07.772Z,6.20
2023-05-21T08:18:12.325Z,7.72
2023-05-21T08:21:17.598Z,6.40
2023-05-21T08:24:20.855Z,8.35
2023-05-21T08:27:24.149Z,6.22
2023-05-21T08:30:27.317Z,8.20
2023-05-21T08:33:29.858Z,6.68
2023-05-21T08:36:33.034Z,6.82
2023-05-21T08:39:36.958Z,7.43
2023-05-21T08:42:44.014Z,8.43
2023-05-21T08:45:54.387Z,10.23
2023-05-21T08:48:59.175Z,6.03
2023-05-21T08:52:02.538Z,6.07
2023-05-21T08:55:06.154Z,6.12
2023-05-21T08:58:10.341Z,6.72
2023-05-21T09:01:13.429Z,7.47
2023-05-21T09:04:21.162Z,5.35
2023-05-21T09:07:27.468Z,6.78
2023-05-21T09:10:37.168Z,6.65
2023-05-21T09:13:40.767Z,7.25
2023-05-21T09:16:48.383Z,6.47
2023-05-21T09:20:12.514Z,6.47
2023-05-21T09:23:17.893Z,6.82
2023-05-21T09:26:21.765Z,6.78
2023-05-21T09:29:26.179Z,5.65
2023-05-21T09:32:29.041Z,6.20
2023-05-21T09:35:31.784Z,7.07
2023-05-21T09:38:34.963Z,8.10
2023-05-21T09:41:38.122Z,7.97
2023-05-21T09:44:44.147Z,5.07
2023-05-21T09:47:48.019Z,5.47
2023-05-21T09:50:50.810Z,7.05
2023-05-21T09:54:01.292Z,5.65
2023-05-21T09:57:04.306Z,5.45
2023-05-21T10:00:09.000Z,7.20
2023-05-21T10:03:17.110Z,5.73
2023-05-21T10:06:21.124Z,6.55
2023-05-21T10:09:23.809Z,6.57
2023-05-21T10:12:28.839Z,6.20
2023-05-21T10:15:34.664Z,4.90
2023-05-21T10:18:38.166Z,6.57
2023-05-21T10:21:41.152Z,6.40
2023-05-21T10:24:45.357Z,5.15
2023-05-21T10:27:48.516Z,4.62
2023-05-21T10:30:52.386Z,6.50
2023-05-21T10:33:55.797Z,6.10
2023-05-21T10:37:01.694Z,5.53
2023-05-21T10:40:04.621Z,6.53
2023-05-21T10:43:45.525Z,7.45
2023-05-21T10:47:05.321Z,5.72
2023-05-21T10:50:08.110Z,5.30
2023-05-21T10:53:41.878Z,7.32
2023-05-21T10:56:49.352Z,6.72
2023-05-21T10:59:51.987Z,6.82
2023-05-21T11:02:55.062Z,4.93
2023-05-21T11:05:58.056Z,5.67
2023-05-21T11:09:13.983Z,5.50
2023-05-21T11:12:18.021Z,4.35
2023-05-21T11:15:20.873Z,4.78
2023-05-21T11:18:35.742Z,6.28
2023-05-21T11:21:40.519Z,5.07
2023-05-21T11:24:43.102Z,3.90
2023-05-21T11:27:47.742Z,5.97
2023-05-21T11:31:29.831Z,5.68
2023-05-21T11:34:50.679Z,5.95
2023-05-21T11:37:54.000Z,4.67
2023-05-21T11:41:02.094Z,5.18
2023-05-21T11:44:08.807Z,4.70
2023-05-21T11:47:18.450Z,4.03
2023-05-21T11:50:21.108Z,6.55
2023-05-21T11:53:23.940Z,4.30
2023-05-21T11:56:26.857Z,6.45
2023-05-21T11:59:29.919Z,9.32
2023-05-21T12:02:33.114Z,5.68
2023-05-21T12:05:48.841Z,6.22
2023-05-21T12:08:52.533Z,7.07
2023-05-21T12:11:55.539Z,6.18
2023-05-21T12:14:58.420Z,6.80
2023-05-21T12:18:01.368Z,9.85
2023-05-21T12:21:04.896Z,6.57
2023-05-21T12:24:07.766Z,7.37
2023-05-21T12:27:12.913Z,5.32
2023-05-21T12:30:15.881Z,6.85
2023-05-21T12:33:18.928Z,7.22
2023-05-21T12:36:30.425Z,6.15
2023-05-21T12:39:37.674Z,6.00
2023-05-21T12:42:40.687Z,6.43
2023-05-21T12:45:43.295Z,6.20
2023-05-21T12:48:51.502Z,6.82
2023-05-21T12:51:56.725Z,5.47
2023-05-21T12:55:01.218Z,5.40
2023-05-21T12:58:05.629Z,6.28
2023-05-21T13:01:12.082Z,4.82
2023-05-21T13:04:15.386Z,6.28
2023-05-21T13:07:18.468Z,7.53
2023-05-21T13:10:21.448Z,5.10
2023-05-21T13:13:24.239Z,5.78
2023-05-21T13:16:27.083Z,5.45
2023-05-21T13:19:29.879Z,5.43
2023-05-21T13:22:32.794Z,7.30
2023-05-21T13:25:35.314Z,6.60
2023-05-21T13:28:38.082Z,5.20
2023-05-21T13:31:44.175Z,5.07
2023-05-21T13:34:48.005Z,6.47
2023-05-21T13:37:51.517Z,7.80
2023-05-21T13:40:55.064Z,6.20
2023-05-21T13:43:58.437Z,6.53
2023-05-21T13:47:01.481Z,5.28
2023-05-21T13:50:04.316Z,5.20
2023-05-21T13:53:08.030Z,5.68
2023-05-21T13:56:10.942Z,6.40
2023-05-21T13:59:13.764Z,6.25
2023-05-21T14:02:16.609Z,5.18
2023-05-21T14:05:19.544Z,6.55
2023-05-21T14:08:23.668Z,7.12
2023-05-21T14:11:27.713Z,5.47
2023-05-21T14:14:30.238Z,5.12
2023-05-21T14:17:33.075Z,5.05
2023-05-21T14:20:36.547Z,7.60
2023-05-21T14:23:39.292Z,6.32
2023-05-21T14:26:41.957Z,6.13
2023-05-21T14:29:44.769Z,7.18
2023-05-21T14:32:47.241Z,5.78
2023-05-21T14:35:50.040Z,6.47
2023-05-21T14:38:52.562Z,5.62
2023-05-21T14:41:55.348Z,6.87
2023-05-21T14:48:03.214Z,5.40
2023-05-21T14:51:05.891Z,6.07
2023-05-21T14:54:08.737Z,5.18
2023-05-21T15:00:20.014Z,5.50
2023-05-21T15:03:22.688Z,6.12
2023-05-21T15:06:25.658Z,5.32
2023-05-21T15:09:28.187Z,4.87
2023-05-21T15:12:30.998Z,6.45
2023-05-21T15:15:33.757Z,5.75
2023-05-21T15:18:36.680Z,7.65
2023-05-21T15:21:39.341Z,5.03
2023-05-21T15:24:42.207Z,5.10
2023-05-21T15:27:44.907Z,6.62
2023-05-21T15:30:47.661Z,5.50
2023-05-21T15:33:50.229Z,6.45
2023-05-21T15:36:52.954Z,5.97
2023-05-21T15:39:55.495Z,8.02
2023-05-21T15:42:58.273Z,6.18
2023-05-21T15:46:00.887Z,5.37
2023-05-21T15:49:03.649Z,5.32
2023-05-21T15:52:06.762Z,5.73
2023-05-21T15:55:09.904Z,6.53
2023-05-21T15:58:12.605Z,6.90
2023-05-21T16:01:15.495Z,5.75
2023-05-21T16:04:20.328Z,5.95
2023-05-21T16:07:23.686Z,8.37
2023-05-21T16:10:26.512Z,5.62
2023-05-21T16:13:28.956Z,7.70
2023-05-21T16:16:31.928Z,5.20
2023-05-21T16:19:34.409Z,6.47
2023-05-21T16:22:37.227Z,5.47
2023-05-21T16:25:40.147Z,6.53
2023-05-21T16:28:43.120Z,6.65
2023-05-21T16:31:45.568Z,6.57
2023-05-21T16:34:48.388Z,6.28
2023-05-21T16:37:50.815Z,5.70
2023-05-21T16:40:53.622Z,7.25
2023-05-21T16:43:56.263Z,5.30
2023-05-21T16:46:59.867Z,7.68
2023-05-21T16:50:02.453Z,6.10
2023-05-21T16:53:06.858Z,8.43
2023-05-21T16:56:09.315Z,7.40
2023-05-21T16:59:13.620Z,5.00
2023-05-21T17:02:16.151Z,5.97
2023-05-21T17:05:19.012Z,5.75
2023-05-21T17:08:21.492Z,7.07
2023-05-21T17:11:24.287Z,4.85
2023-05-21T17:14:34.140Z,6.68
2023-05-21T17:17:37.830Z,5.53
2023-05-21T17:20:40.463Z,5.78
2023-05-21T17:23:43.276Z,5.73
2023-05-21T17:26:45.759Z,6.72
2023-05-21T17:29:48.660Z,7.30
2023-05-21T17:32:51.192Z,6.12
2023-05-21T17:35:56.442Z,6.50
2023-05-21T17:38:59.495Z,6.27
2023-05-21T17:42:02.348Z,10.52
2023-05-21T17:45:06.109Z,8.00
2023-05-21T17:48:08.994Z,7.15
2023-05-21T17:51:13.520Z,6.35
2023-05-21T17:54:16.498Z,8.23
2023-05-21T17:57:20.277Z,7.22
2023-05-21T18:00:23.183Z,6.05
2023-05-21T18:03:26.003Z,6.55
2023-05-21T18:06:29.085Z,5.97
2023-05-21T18:09:31.808Z,7.10
2023-05-21T18:12:35.043Z,7.37
2023-05-21T18:15:38.013Z,7.03
2023-05-21T18:18:41.678Z,6.93
2023-05-21T18:21:44.706Z,6.68
2023-05-21T18:24:47.193Z,5.87
2023-05-21T18:27:49.999Z,6.68
2023-05-21T18:30:52.621Z,6.87
2023-05-21T18:33:55.683Z,8.85
2023-05-21T18:36:58.780Z,6.82
2023-05-21T18:40:01.704Z,7.37
2023-05-21T18:43:06.069Z,7.62
2023-05-21T18:46:08.930Z,7.12
2023-05-21T18:49:11.556Z,7.72
2023-05-21T18:52:14.496Z,7.65
2023-05-21T18:55:16.949Z,7.57
2023-05-21T18:58:19.872Z,7.43
2023-05-21T19:01:22.547Z,9.45
2023-05-21T19:04:25.612Z,8.60
2023-05-21T19:07:28.384Z,7.03
2023-05-21T19:10:31.108Z,10.37
2023-05-21T19:13:34.180Z,7.82
2023-05-21T19:16:37.030Z,8.63
2023-05-21T19:19:40.136Z,10.43
2023-05-21T19:22:42.906Z,9.23
2023-05-21T19:25:45.486Z,7.70
2023-05-21T19:28:53.129Z,8.30
2023-05-21T19:31:58.298Z,9.32
2023-05-21T19:35:01.095Z,7.35
2023-05-21T19:38:05.486Z,8.35
2023-05-21T19:41:08.439Z,8.07
2023-05-21T19:44:11.152Z,8.35
2023-05-21T19:47:13.984Z,6.35
2023-05-21T19:50:16.496Z,7.70
2023-05-21T19:53:19.283Z,9.05
2023-05-21T19:56:22.018Z,7.30
2023-05-21T19:59:24.797Z,10.18
2023-05-21T20:02:28.804Z,7.00
2023-05-21T20:05:31.608Z,7.47
2023-05-21T20:08:34.446Z,7.60
2023-05-21T20:11:37.236Z,7.10
2023-05-21T20:14:39.717Z,8.70
2023-05-21T20:17:44.220Z,7.47
2023-05-21T20:20:46.894Z,9.18
2023-05-21T20:23:50.177Z,8.20
2023-05-21T20:26:54.928Z,8.67
2023-05-21T20:29:57.706Z,7.53
2023-05-21T20:33:02.041Z,8.90
2023-05-21T20:36:04.953Z,10.32
2023-05-21T20:39:09.217Z,8.20
2023-05-21T20:42:14.979Z,9.33
2023-05-21T20:45:17.582Z,9.38
2023-05-21T20:48:20.299Z,8.70
2023-05-21T20:51:22.738Z,7.55
2023-05-21T20:54:26.910Z,9.48
2023-05-21T20:57:29.640Z,8.40
2023-05-21T21:00:33.399Z,6.78
2023-05-21T21:03:36.932Z,8.13
2023-05-21T21:06:40.399Z,7.45
2023-05-21T21:09:42.958Z,7.37
2023-05-21T21:12:45.776Z,7.40
2023-05-21T21:15:48.294Z,8.30
2023-05-21T21:18:51.226Z,12.18
2023-05-21T21:21:53.754Z,10.43
2023-05-21T21:24:56.528Z,8.88
2023-05-21T21:27:58.986Z,7.60
2023-05-21T21:31:01.758Z,7.68
2023-05-21T21:34:04.356Z,6.87
2023-05-21T21:37:07.276Z,7.72
2023-05-21T21:40:09.956Z,8.63
2023-05-21T21:43:12.751Z,8.97
2023-05-21T21:46:15.631Z,6.30
2023-05-21T21:49:18.507Z,9.00
2023-05-21T21:52:21.088Z,8.13
2023-05-21T21:55:23.866Z,7.20
2023-05-21T21:58:26.395Z,7.20
2023-05-21T22:01:29.788Z,8.95
2023-05-21T22:04:32.702Z,9.38
2023-05-21T22:07:35.596Z,8.05
2023-05-21T22:10:38.735Z,8.68
2023-05-21T22:13:44.300Z,7.43
2023-05-21T22:16:53.146Z,9.45
2023-05-21T22:19:56.168Z,8.10
2023-05-21T22:22:59.750Z,9.43
2023-05-21T22:26:02.273Z,7.05
2023-05-21T22:29:05.032Z,7.53
2023-05-21T22:32:07.538Z,7.68
2023-05-21T22:35:10.402Z,8.77
2023-05-21T22:38:12.931Z,7.80
2023-05-21T22:41:15.746Z,8.40
2023-05-21T22:44:18.285Z,8.03
2023-05-21T22:47:23.820Z,7.05
2023-05-21T22:50:29.103Z,6.85
2023-05-21T22:53:32.374Z,11.38
2023-05-21T22:56:34.898Z,7.97
2023-05-21T22:59:37.650Z,9.27
2023-05-21T23:02:40.226Z,8.85
2023-05-21T23:05:43.270Z,9.93
2023-05-21T23:08:45.902Z,9.00
2023-05-21T23:11:48.672Z,10.07
2023-05-21T23:14:51.194Z,7.67
2023-05-21T23:17:53.994Z,7.37
2023-05-21T23:20:57.193Z,8.52
2023-05-21T23:24:00.092Z,9.27
2023-05-21T23:27:03.094Z,10.80
2023-05-21T23:30:06.518Z,8.23
2023-05-21T23:33:09.873Z,8.32
2023-05-21T23:36:12.784Z,9.18
2023-05-21T23:39:15.695Z,10.90
2023-05-21T23:42:18.839Z,11.93
2023-05-21T23:45:21.441Z,8.53
2023-05-21T23:48:24.383Z,9.57
2023-05-21T23:51:27.130Z,8.05
2023-05-21T23:54:29.875Z,8.55
2023-05-21T23:57:32.379Z,8.77
